Time;durP1;ratioP1;P1;durP2;ratioP2;P2;SDS_P1;SDS_P2;PMS_P1;PMS_P2;Temp;Humidity;BMP_temperature;BMP_pressure;BME280_temperature;BME280_humidity;BME280_pressure;Samples;Min_cycle;Max_cycle;Signal;HPM_P1;HPM_P2
2023/01/11 00:01:18;;;;;;;5.38;2.70;;;;;;;4.75;76.37;98342.22;4980329;28;20515;-82
2023/01/11 00:03:43;;;;;;;5.20;2.60;;;;;;;4.85;76.41;98352.47;4984501;28;20053;-82
2023/01/11 00:06:10;;;;;;;6.97;2.53;;;;;;;4.85;76.33;98349.88;4980214;28;20387;-82
2023/01/11 00:08:36;;;;;;;4.53;2.42;;;;;;;4.86;76.09;98355.88;4979385;28;20039;-82
2023/01/11 00:11:02;;;;;;;6.78;2.47;;;;;;;4.86;76.05;98356.72;4982143;28;20107;-82
2023/01/11 00:13:28;;;;;;;5.72;2.60;;;;;;;4.93;75.80;98352.53;4981443;28;20134;-82
2023/01/11 00:15:54;;;;;;;4.10;2.20;;;;;;;4.95;75.51;98347.97;4985885;28;20034;-82
2023/01/11 00:18:19;;;;;;;7.55;2.70;;;;;;;5.01;75.63;98346.53;4979551;28;20034;-82
2023/01/11 00:20:45;;;;;;;5.15;2.45;;;;;;;4.99;75.54;98346.69;4979221;28;20094;-82
2023/01/11 00:23:10;;;;;;;4.72;2.47;;;;;;;5.03;75.69;98347.16;4981522;28;20117;-82
2023/01/11 00:25:37;;;;;;;2.63;2.08;;;;;;;4.98;75.52;98344.25;4978032;28;20031;-82
2023/01/11 00:28:04;;;;;;;4.80;2.25;;;;;;;4.98;75.45;98344.25;4979400;28;20085;-82
2023/01/11 00:30:29;;;;;;;5.10;2.10;;;;;;;5.01;75.72;98349.94;4980250;28;20038;-82
2023/01/11 00:32:57;;;;;;;4.15;2.42;;;;;;;5.00;75.50;98345.72;4978101;28;20433;-82
2023/01/11 00:35:24;;;;;;;4.90;2.30;;;;;;;5.00;75.92;98340.50;4975478;28;20046;-82
2023/01/11 00:37:54;;;;;;;3.20;2.13;;;;;;;5.01;75.86;98336.94;4981269;28;20038;-83
2023/01/11 00:40:20;;;;;;;4.25;2.17;;;;;;;5.07;75.76;98336.31;4976526;28;20042;-82
2023/01/11 00:48:14;;;;;;;4.80;2.38;;;;;;;4.99;76.65;98309.50;4978163;28;20037;-82
2023/01/11 00:50:40;;;;;;;3.40;2.10;;;;;;;4.91;77.54;98312.84;4977878;28;20520;-82
2023/01/11 00:53:08;;;;;;;3.70;2.35;;;;;;;4.95;78.00;98297.78;4978117;28;20065;-82
2023/01/11 00:55:34;;;;;;;5.78;2.70;;;;;;;4.99;78.25;98305.09;4976423;28;20059;-82
2023/01/11 00:58:00;;;;;;;4.20;2.72;;;;;;;5.02;78.53;98299.56;4979374;28;20482;-82
2023/01/11 01:00:28;;;;;;;4.50;2.30;;;;;;;5.04;78.35;98302.84;4980430;28;20486;-82
2023/01/11 01:02:53;;;;;;;7.72;2.35;;;;;;;5.02;79.18;98299.56;4980579;28;20166;-82
2023/01/11 01:05:20;;;;;;;6.05;3.03;;;;;;;5.01;80.38;98292.75;4981824;28;20162;-82
2023/01/11 01:07:45;;;;;;;4.47;2.38;;;;;;;4.90;81.15;98300.84;4981045;28;20109;-82
2023/01/11 01:10:15;;;;;;;5.13;2.42;;;;;;;4.91;81.38;98302.47;4983046;28;20125;-82
2023/01/11 01:15:24;;;;;;;5.28;2.58;;;;;;;4.89;82.29;98293.22;4979285;28;20118;-82
2023/01/11 01:17:54;;;;;;;5.68;2.63;;;;;;;4.83;82.88;98295.47;4980656;28;20042;-82
2023/01/11 01:20:22;;;;;;;6.82;2.60;;;;;;;4.86;83.32;98302.16;4980319;28;20042;-82
2023/01/11 01:22:47;;;;;;;6.97;2.42;;;;;;;4.82;83.88;98299.03;4978207;28;20034;-82
2023/01/11 01:25:14;;;;;;;5.10;2.72;;;;;;;4.78;84.62;98296.91;4979720;28;20501;-82
2023/01/11 01:27:39;;;;;;;8.00;2.70;;;;;;;4.77;84.92;98290.09;4977737;28;20039;-82
2023/01/11 01:30:06;;;;;;;3.53;2.40;;;;;;;4.74;84.98;98285.22;4977269;28;20368;-82
2023/01/11 01:32:32;;;;;;;4.78;2.65;;;;;;;4.78;85.26;98286.50;4978783;28;20047;-82
2023/01/11 01:34:57;;;;;;;3.10;2.42;;;;;;;4.76;85.64;98285.88;4973844;28;20372;-82
2023/01/11 01:37:23;;;;;;;7.35;2.85;;;;;;;4.72;86.07;98285.34;4978087;28;20478;-82
2023/01/11 01:39:49;;;;;;;3.95;2.50;;;;;;;4.71;86.45;98285.53;4979497;28;20073;-82
2023/01/11 01:42:18;;;;;;;6.75;2.50;;;;;;;4.76;86.39;98283.28;4981967;28;20038;-82
2023/01/11 01:44:55;;;;;;;4.72;3.00;;;;;;;4.73;86.66;98278.38;4978158;28;20521;-82
2023/01/11 01:47:29;;;;;;;6.40;2.85;;;;;;;4.77;86.71;98271.91;4979420;28;20038;-82
2023/01/11 01:50:00;;;;;;;4.28;2.72;;;;;;;4.69;86.89;98261.50;4979188;28;20113;-82
2023/01/11 01:52:28;;;;;;;6.10;2.70;;;;;;;4.66;87.30;98262.59;4976172;28;20043;-82
2023/01/11 01:54:59;;;;;;;3.28;2.80;;;;;;;4.72;87.59;98261.16;4977203;28;20475;-82
2023/01/11 01:57:30;;;;;;;4.05;2.72;;;;;;;4.69;87.64;98262.31;4978746;28;20035;-82
2023/01/11 02:00:01;;;;;;;4.43;2.70;;;;;;;4.63;87.96;98259.53;4979090;28;20094;-83
2023/01/11 02:02:27;;;;;;;6.22;2.70;;;;;;;4.68;88.30;98252.03;4980665;28;20405;-82
2023/01/11 02:04:57;;;;;;;4.68;2.67;;;;;;;4.65;88.10;98250.59;4981003;28;20041;-82
2023/01/11 02:07:31;;;;;;;5.18;2.65;;;;;;;4.66;88.17;98252.22;4978794;28;20049;-82
2023/01/11 02:10:16;;;;;;;6.40;2.80;;;;;;;4.71;88.26;98254.34;4980520;28;20057;-82
2023/01/11 02:12:57;;;;;;;4.18;2.15;;;;;;;4.67;88.37;98250.44;4979675;28;20100;-81
2023/01/11 02:15:24;;;;;;;5.55;3.20;;;;;;;4.67;88.66;98248.63;4985086;28;20049;-82
2023/01/11 02:17:50;;;;;;;4.45;2.97;;;;;;;4.57;89.77;98233.19;4980026;28;20034;-82
2023/01/11 02:20:24;;;;;;;6.38;2.65;;;;;;;4.61;90.25;98232.88;4979178;28;20054;-82
2023/01/11 02:23:25;;;;;;;5.57;2.90;;;;;;;4.59;90.82;98234.81;4977268;28;20382;-82
2023/01/11 02:26:31;;;;;;;5.57;2.50;;;;;;;4.55;91.04;98235.13;4977585;28;20037;-82
2023/01/11 02:29:12;;;;;;;4.45;2.67;;;;;;;4.49;91.62;98227.97;4978871;28;20398;-82
2023/01/11 02:32:11;;;;;;;3.35;2.60;;;;;;;4.45;92.01;98224.06;4979706;28;20109;-82
2023/01/11 02:35:02;;;;;;;5.38;2.83;;;;;;;4.52;92.07;98222.47;4977833;28;20035;-82
2023/01/11 02:38:18;;;;;;;6.85;2.92;;;;;;;4.52;91.96;98227.66;4975463;28;20085;-82
2023/01/11 02:41:02;;;;;;;3.38;2.60;;;;;;;4.48;91.99;98212.53;4977781;28;20509;-82
2023/01/11 02:47:02;;;;;;;7.03;3.13;;;;;;;4.47;92.61;98201.34;4979912;28;20037;-82
2023/01/11 02:49:46;;;;;;;4.38;2.63;;;;;;;4.40;93.02;98199.53;4980071;28;20486;-82
2023/01/11 02:52:48;;;;;;;4.88;2.58;;;;;;;4.34;93.42;98185.41;4978420;28;20043;-82
2023/01/11 02:55:21;;;;;;;4.40;3.20;;;;;;;4.41;93.71;98207.16;5006953;28;20058;-82
2023/01/11 02:57:47;;;;;;;5.35;3.00;;;;;;;4.33;93.48;98204.56;4985313;28;20057;-82
2023/01/11 03:00:17;;;;;;;4.60;2.65;;;;;;;4.33;93.57;98195.97;4981345;28;20030;-82
2023/01/11 03:02:42;;;;;;;5.60;3.22;;;;;;;4.37;93.61;98190.28;4985292;28;20430;-82
2023/01/11 03:05:12;;;;;;;5.03;2.97;;;;;;;4.41;93.49;98196.78;4984194;28;20038;-82
2023/01/11 03:08:06;;;;;;;5.15;2.75;;;;;;;4.23;93.39;98211.66;4981284;28;20045;-82
2023/01/11 03:10:59;;;;;;;4.18;3.05;;;;;;;4.34;93.59;98201.00;4983302;28;20026;-82
2023/01/11 03:13:59;;;;;;;6.03;2.72;;;;;;;4.40;92.96;98200.34;4982415;28;20428;-82
2023/01/11 03:16:37;;;;;;;5.82;3.20;;;;;;;4.48;92.74;98195.19;4984658;28;20035;-82
2023/01/11 03:19:25;;;;;;;5.13;2.65;;;;;;;4.51;92.44;98188.88;4978571;28;20034;-82
2023/01/11 03:22:19;;;;;;;5.03;2.53;;;;;;;4.49;92.57;98178.63;4983753;28;20034;-82
2023/01/11 03:25:03;;;;;;;5.70;3.00;;;;;;;4.50;92.28;98176.84;4980711;28;20031;-82
2023/01/11 03:27:55;;;;;;;4.38;3.05;;;;;;;4.56;92.27;98184.81;4980408;28;20636;-82
2023/01/11 03:30:26;;;;;;;3.67;2.97;;;;;;;4.61;91.86;98171.34;4987890;28;20042;-82
2023/01/11 03:32:55;;;;;;;5.13;3.17;;;;;;;4.54;91.82;98175.53;4978490;28;20042;-82
2023/01/11 03:35:55;;;;;;;4.30;2.78;;;;;;;4.57;91.51;98165.66;4978187;28;20046;-83
2023/01/11 03:38:37;;;;;;;3.42;2.50;;;;;;;4.54;91.44;98152.16;4979613;28;20049;-83
2023/01/11 03:41:11;;;;;;;4.93;2.75;;;;;;;4.62;91.68;98157.41;4981080;28;20081;-82
2023/01/11 03:43:42;;;;;;;5.25;3.90;;;;;;;4.73;91.51;98149.28;4982551;28;20058;-82
2023/01/11 03:46:32;;;;;;;3.17;2.60;;;;;;;4.82;91.31;98144.91;4980856;28;20034;-82
2023/01/11 03:49:08;;;;;;;4.85;2.85;;;;;;;4.88;90.63;98140.84;4978384;28;20034;-82
2023/01/11 03:51:42;;;;;;;5.65;2.92;;;;;;;4.91;90.44;98137.91;4978319;28;20035;-82
2023/01/11 03:54:14;;;;;;;5.57;2.85;;;;;;;4.84;90.67;98127.34;4983177;28;20035;-82
2023/01/11 03:57:01;;;;;;;4.63;4.03;;;;;;;4.84;90.68;98137.75;4980704;28;20039;-82
2023/01/11 03:59:27;;;;;;;6.35;2.78;;;;;;;4.85;90.99;98126.38;4981945;28;20493;-83
2023/01/11 04:01:54;;;;;;;4.90;2.97;;;;;;;4.90;90.88;98124.09;4982475;28;20058;-82
2023/01/11 04:04:20;;;;;;;4.18;2.92;;;;;;;4.82;90.25;98121.53;4982924;28;20034;-82
2023/01/11 04:06:45;;;;;;;5.00;3.03;;;;;;;4.82;90.75;98131.91;4983325;28;20045;-82
2023/01/11 04:09:11;;;;;;;7.05;2.92;;;;;;;4.84;90.64;98128.16;4980542;28;20069;-82
2023/01/11 04:11:36;;;;;;;3.38;2.40;;;;;;;4.90;90.42;98124.09;4982877;28;20074;-82
2023/01/11 04:14:02;;;;;;;5.45;3.05;;;;;;;4.93;90.58;98123.00;4979865;28;20066;-82
2023/01/11 04:16:27;;;;;;;4.18;2.88;;;;;;;4.95;90.89;98121.03;4982585;28;20121;-82
2023/01/11 04:18:52;;;;;;;4.13;2.30;;;;;;;4.87;90.88;98116.66;4978878;28;20114;-82
2023/01/11 04:21:18;;;;;;;6.63;2.78;;;;;;;4.94;91.00;98122.00;4979984;28;20118;-82
2023/01/11 04:23:44;;;;;;;4.55;2.60;;;;;;;4.91;91.11;98125.72;4980292;28;20508;-82
2023/01/11 04:26:09;;;;;;;6.25;3.00;;;;;;;4.88;90.98;98120.06;4979323;28;20386;-82
2023/01/11 04:28:35;;;;;;;6.03;3.03;;;;;;;4.89;91.19;98112.09;4977990;28;20442;-82
2023/01/11 04:31:00;;;;;;;6.53;2.80;;;;;;;4.95;90.88;98105.44;4979608;28;20038;-82
2023/01/11 04:33:26;;;;;;;5.60;3.22;;;;;;;4.93;90.98;98113.41;4978806;28;20039;-82
2023/01/11 04:35:51;;;;;;;4.80;2.67;;;;;;;4.78;90.82;98091.63;4975838;28;20057;-82
2023/01/11 04:38:17;;;;;;;2.97;2.58;;;;;;;4.95;90.77;98101.03;4979650;28;20077;-82
2023/01/11 04:40:43;;;;;;;3.53;2.80;;;;;;;4.88;90.69;98094.88;4980888;28;20038;-82
2023/01/11 04:43:08;;;;;;;4.55;2.63;;;;;;;4.93;90.55;98100.41;4976957;28;20053;-82
2023/01/11 04:45:34;;;;;;;3.53;2.67;;;;;;;4.85;90.38;98105.59;4979205;28;20106;-83
2023/01/11 04:47:59;;;;;;;3.95;2.60;;;;;;;4.87;90.63;98100.25;4976823;28;20069;-82
2023/01/11 04:50:26;;;;;;;3.00;2.28;;;;;;;4.84;90.41;98094.38;4981177;28;20043;-83
2023/01/11 04:52:52;;;;;;;4.60;2.70;;;;;;;4.84;90.82;98101.38;4981034;28;20027;-82
2023/01/11 04:55:19;;;;;;;5.15;2.58;;;;;;;4.86;90.64;98096.84;4982268;28;20046;-82
2023/01/11 04:57:45;;;;;;;3.42;2.70;;;;;;;4.95;90.60;98102.84;4982859;28;20034;-82
2023/01/11 05:00:14;;;;;;;4.43;2.65;;;;;;;4.93;90.34;98110.81;4979326;28;20046;-82
2023/01/11 05:02:41;;;;;;;4.20;2.55;;;;;;;4.94;90.69;98103.81;4982565;28;20054;-82
2023/01/11 05:05:09;;;;;;;4.47;2.38;;;;;;;5.02;90.46;98107.22;4978721;28;20034;-82
2023/01/11 05:07:34;;;;;;;4.75;2.55;;;;;;;5.12;90.25;98103.63;4978882;28;20093;-82
2023/01/11 05:10:01;;;;;;;4.28;2.97;;;;;;;5.21;89.70;98102.63;4979569;28;20031;-83
2023/01/11 05:12:27;;;;;;;3.90;2.75;;;;;;;5.21;89.01;98097.44;4976654;28;20070;-82
2023/01/11 05:14:52;;;;;;;2.50;2.13;;;;;;;5.22;88.91;98106.88;4980007;28;20427;-82
2023/01/11 05:17:18;;;;;;;5.30;2.42;;;;;;;5.14;89.20;98104.28;4981231;28;20131;-82
2023/01/11 05:19:43;;;;;;;4.88;3.03;;;;;;;5.14;89.42;98104.28;4980597;28;20506;-82
2023/01/11 05:22:09;;;;;;;5.90;2.70;;;;;;;5.13;89.84;98097.44;4979648;28;20038;-82
2023/01/11 05:24:35;;;;;;;3.33;2.38;;;;;;;5.21;90.36;98100.84;4979247;28;20031;-82
2023/01/11 05:27:00;;;;;;;5.93;2.65;;;;;;;5.23;90.55;98098.91;4979115;28;20556;-82
2023/01/11 05:29:27;;;;;;;3.28;2.45;;;;;;;5.21;90.43;98090.44;4978551;28;20588;-82
2023/01/11 05:31:52;;;;;;;4.57;2.65;;;;;;;5.27;90.66;98096.78;4978472;28;20092;-82
2023/01/11 05:34:18;;;;;;;4.53;2.30;;;;;;;5.24;90.56;98086.72;4975338;28;20382;-82
2023/01/11 05:36:45;;;;;;;4.35;2.60;;;;;;;5.25;90.50;98085.72;4979412;28;20030;-82
2023/01/11 05:39:12;;;;;;;3.75;2.85;;;;;;;5.33;90.78;98081.31;4975531;28;20039;-82
2023/01/11 05:41:38;;;;;;;4.07;2.58;;;;;;;5.35;90.01;98081.16;4976220;28;20092;-82
2023/01/11 05:46:48;;;;;;;5.25;2.88;;;;;;;5.30;90.07;98073.03;4977743;28;20651;-82
2023/01/11 05:49:14;;;;;;;5.22;2.67;;;;;;;5.31;89.79;98074.66;4981717;28;20069;-82
2023/01/11 05:51:42;;;;;;;5.50;2.83;;;;;;;5.31;90.02;98072.88;4980549;28;20046;-82
2023/01/11 05:54:12;;;;;;;5.15;2.60;;;;;;;5.39;89.82;98072.03;4978580;28;20030;-82
2023/01/11 05:56:38;;;;;;;4.90;2.45;;;;;;;5.37;89.19;98066.19;4981970;28;20458;-82
2023/01/11 05:59:04;;;;;;;5.30;2.83;;;;;;;5.46;89.35;98075.63;4979572;28;20058;-82
2023/01/11 06:01:30;;;;;;;4.78;2.97;;;;;;;5.53;89.24;98067.94;4978038;28;20046;-82
2023/01/11 06:03:56;;;;;;;4.65;2.72;;;;;;;5.53;88.41;98063.56;4985947;28;20035;-82
2023/01/11 06:06:21;;;;;;;2.92;2.60;;;;;;;5.59;88.59;98067.28;4979235;28;20066;-81
2023/01/11 06:08:47;;;;;;;3.35;2.50;;;;;;;5.54;88.58;98062.56;4980099;28;20119;-82
2023/01/11 06:11:14;;;;;;;3.90;2.70;;;;;;;5.56;89.04;98062.38;4979256;28;20491;-82
2023/01/11 06:13:40;;;;;;;4.60;2.30;;;;;;;5.60;88.71;98054.09;4980393;28;20038;-82
2023/01/11 06:16:11;;;;;;;4.60;2.67;;;;;;;5.64;88.60;98054.56;4979520;28;20061;-83
2023/01/11 06:18:39;;;;;;;4.25;2.67;;;;;;;5.69;88.49;98051.44;4981919;28;20038;-82
2023/01/11 06:21:07;;;;;;;5.78;2.60;;;;;;;5.62;88.44;98051.31;4980056;28;20033;-85
2023/01/11 06:23:35;;;;;;;2.90;2.35;;;;;;;5.68;88.52;98052.44;4980717;28;20031;-83
2023/01/11 06:26:07;;;;;;;5.40;2.45;;;;;;;5.66;88.40;98057.00;4979980;28;20501;-82
2023/01/11 06:28:34;;;;;;;2.75;2.30;;;;;;;5.66;88.24;98057.00;4979987;28;20089;-82
2023/01/11 06:31:00;;;;;;;4.53;2.70;;;;;;;5.69;88.24;98057.44;4981449;28;20125;-82
2023/01/11 06:33:27;;;;;;;4.63;2.70;;;;;;;5.71;88.05;98059.91;4981916;28;20048;-81
2023/01/11 06:35:54;;;;;;;3.53;2.38;;;;;;;5.68;88.09;98060.22;4978418;28;20125;-82
2023/01/11 06:38:22;;;;;;;4.95;2.60;;;;;;;5.54;88.14;98039.16;4980887;28;20133;-83
2023/01/11 06:40:59;;;;;;;5.65;2.65;;;;;;;5.71;88.45;98046.91;4981129;28;20045;-83
2023/01/11 06:43:27;;;;;;;6.50;2.55;;;;;;;5.62;88.48;98046.91;4981392;28;20487;-82
2023/01/11 06:45:53;;;;;;;4.43;2.60;;;;;;;5.67;88.86;98049.00;4979246;28;20109;-83
2023/01/11 06:48:22;;;;;;;4.75;2.38;;;;;;;5.70;88.58;98037.44;4983301;28;20041;-83
2023/01/11 06:50:49;;;;;;;2.78;2.20;;;;;;;5.67;88.60;98037.81;4984005;28;20212;-82
2023/01/11 06:53:15;;;;;;;2.60;2.17;;;;;;;5.65;88.64;98035.38;4986665;28;20034;-82
2023/01/11 06:55:40;;;;;;;4.40;2.55;;;;;;;5.71;88.68;98028.69;4984345;28;20051;-83
2023/01/11 06:58:06;;;;;;;5.90;2.40;;;;;;;5.76;88.68;98031.59;4982673;28;20034;-82
2023/01/11 07:00:32;;;;;;;4.03;2.47;;;;;;;5.80;88.28;98031.06;4982675;28;20035;-82
2023/01/11 07:03:04;;;;;;;5.70;2.80;;;;;;;5.92;88.20;98041.13;4984711;28;20144;-83
2023/01/11 07:05:35;;;;;;;6.05;2.38;;;;;;;5.96;88.28;98042.41;4981556;28;20089;-82
2023/01/11 07:08:01;;;;;;;4.90;2.60;;;;;;;6.03;87.95;98043.34;4981013;28;20022;-82
2023/01/11 07:10:27;;;;;;;3.72;2.40;;;;;;;6.04;87.43;98037.13;4982385;28;20065;-83
2023/01/11 07:12:53;;;;;;;6.57;2.42;;;;;;;6.04;87.54;98039.75;4983282;28;20078;-83
2023/01/11 07:15:19;;;;;;;2.65;1.85;;;;;;;6.11;87.75;98025.03;4982473;28;20496;-83
2023/01/11 07:17:47;;;;;;;4.85;2.17;;;;;;;6.15;87.48;98040.16;4969178;28;20030;-83
2023/01/11 07:20:13;;;;;;;2.53;1.90;;;;;;;6.15;87.37;98026.34;4980721;28;20053;-83
2023/01/11 07:22:39;;;;;;;3.30;2.17;;;;;;;6.16;87.39;98039.19;4978977;28;20038;-82
2023/01/11 07:25:05;;;;;;;6.78;2.35;;;;;;;6.12;87.55;98034.50;4979932;28;20030;-82
2023/01/11 07:27:31;;;;;;;4.88;2.20;;;;;;;6.12;87.38;98037.91;4978672;28;20470;-83
2023/01/11 07:30:00;;;;;;;3.58;2.22;;;;;;;6.15;87.83;98034.94;4978363;28;20653;-83
2023/01/11 07:32:27;;;;;;;3.10;2.08;;;;;;;6.16;87.59;98035.75;4978161;28;20666;-82
2023/01/11 07:34:54;;;;;;;3.25;2.05;;;;;;;6.11;87.25;98027.66;4977487;28;20983;-83
2023/01/11 07:37:21;;;;;;;5.07;2.08;;;;;;;6.15;87.64;98028.94;4981362;28;20065;-83
2023/01/11 07:39:47;;;;;;;3.72;1.92;;;;;;;6.17;87.45;98025.16;4980583;28;20493;-83
2023/01/11 07:44:56;;;;;;;2.92;1.88;;;;;;;6.23;87.26;98022.84;4976772;28;20041;-83
2023/01/11 07:47:22;;;;;;;6.20;2.30;;;;;;;6.25;87.25;98032.13;4981361;28;20512;-83
2023/01/11 07:49:48;;;;;;;4.90;2.17;;;;;;;6.29;87.22;98016.94;4981896;28;20058;-83
2023/01/11 07:52:13;;;;;;;7.75;3.80;;;;;;;6.31;86.91;98015.81;4978698;28;20047;-82
2023/01/11 07:54:38;;;;;;;5.28;3.75;;;;;;;6.33;86.96;98013.84;4978968;28;20038;-82
2023/01/11 07:57:04;;;;;;;5.57;4.45;;;;;;;6.31;87.05;98015.81;4980641;28;20038;-83
2023/01/11 07:59:29;;;;;;;9.45;6.82;;;;;;;6.41;87.26;98016.38;4981849;28;20038;-83
2023/01/11 08:01:55;;;;;;;7.28;3.40;;;;;;;6.46;86.83;98017.66;4985000;28;20192;-83
2023/01/11 08:04:21;;;;;;;3.28;2.97;;;;;;;6.51;86.81;98016.13;4980606;28;20039;-82
2023/01/11 08:06:46;;;;;;;5.40;2.92;;;;;;;6.49;87.02;98015.50;4978618;28;20367;-82
2023/01/11 08:09:12;;;;;;;6.47;3.38;;;;;;;6.55;87.33;98016.59;4980152;28;20085;-82
2023/01/11 08:14:40;;;;;;;7.40;4.07;;;;;;;6.54;88.06;98010.59;4976895;28;20070;-83
2023/01/11 08:17:08;;;;;;;5.28;3.08;;;;;;;6.56;88.51;98013.81;4976864;28;20038;-83
2023/01/11 08:19:34;;;;;;;4.55;2.40;;;;;;;6.54;88.90;98002.78;4980833;28;20449;-82
2023/01/11 08:22:00;;;;;;;3.95;2.20;;;;;;;6.53;89.14;97998.53;4979133;28;20105;-83
2023/01/11 08:24:25;;;;;;;5.85;2.65;;;;;;;6.57;88.98;98007.63;4978782;28;20069;-83
2023/01/11 08:26:51;;;;;;;2.65;2.20;;;;;;;6.60;88.72;98002.06;4978661;28;20140;-83
2023/01/11 08:29:17;;;;;;;3.33;2.55;;;;;;;6.64;88.60;98005.91;4976930;28;20042;-83
2023/01/11 08:31:45;;;;;;;6.47;3.20;;;;;;;6.70;88.32;97997.41;4976989;28;20043;-82
2023/01/11 08:34:10;;;;;;;5.60;3.03;;;;;;;6.78;88.34;97998.28;4975898;28;20547;-82
2023/01/11 08:36:36;;;;;;;9.68;2.83;;;;;;;6.83;87.44;98009.00;4979022;28;20034;-82
2023/01/11 08:39:02;;;;;;;8.48;2.90;;;;;;;6.85;87.15;98007.06;4978410;28;20035;-82
2023/01/11 08:41:27;;;;;;;6.63;3.03;;;;;;;6.84;86.85;98006.25;4976779;28;20042;-82
2023/01/11 08:43:53;;;;;;;4.63;2.58;;;;;;;6.90;86.43;98009.94;4978639;28;20042;-83
2023/01/11 08:46:18;;;;;;;3.78;2.20;;;;;;;7.00;86.17;98004.44;4972377;28;20031;-82
2023/01/11 08:48:48;;;;;;;5.00;2.67;;;;;;;7.07;85.85;98000.94;4979197;28;20109;-83
2023/01/11 08:51:14;;;;;;;3.67;2.60;;;;;;;7.04;85.44;98010.94;4979126;28;20093;-82
2023/01/11 08:53:40;;;;;;;5.97;2.47;;;;;;;7.05;85.14;98010.75;4977667;28;20038;-82
2023/01/11 08:56:07;;;;;;;5.35;3.10;;;;;;;7.07;85.43;98008.75;4979067;28;20070;-82
2023/01/11 08:58:32;;;;;;;3.30;2.30;;;;;;;7.12;84.81;98008.22;4980693;28;20038;-82
2023/01/11 09:01:01;;;;;;;5.25;2.60;;;;;;;7.16;84.57;98010.31;4975199;28;20494;-82
2023/01/11 09:03:28;;;;;;;6.40;2.90;;;;;;;7.21;84.73;98010.59;4975879;28;20080;-82
2023/01/11 09:05:55;;;;;;;6.10;3.20;;;;;;;7.22;84.38;98008.78;4979860;28;20027;-82
2023/01/11 09:08:22;;;;;;;3.95;2.38;;;;;;;7.28;83.95;98004.66;4979401;28;20038;-82
2023/01/11 09:10:48;;;;;;;7.15;4.85;;;;;;;7.31;83.77;98001.66;4977726;28;20066;-82
2023/01/11 09:13:14;;;;;;;7.30;4.20;;;;;;;7.39;83.33;98004.19;4979160;28;20477;-82
2023/01/11 09:15:40;;;;;;;4.78;2.10;;;;;;;7.36;83.09;97996.72;4973244;28;20138;-82
2023/01/11 09:18:05;;;;;;;3.92;1.88;;;;;;;7.41;82.87;98003.00;4975173;28;20035;-82
2023/01/11 09:20:31;;;;;;;2.63;1.95;;;;;;;7.42;82.76;98003.81;4977206;28;20197;-82
2023/01/11 09:22:57;;;;;;;3.05;2.13;;;;;;;7.53;82.61;97999.94;4978169;28;20030;-83
2023/01/11 09:25:22;;;;;;;2.45;1.92;;;;;;;7.53;82.43;97992.91;4976643;28;20046;-82
2023/01/11 09:27:50;;;;;;;3.25;1.75;;;;;;;7.59;nan;97988.75;4975619;28;20054;-82
2023/01/11 09:30:20;;;;;;;4.53;2.13;;;;;;;7.68;82.58;97990.28;4975727;28;20049;-82
2023/01/11 09:32:47;;;;;;;6.13;2.20;;;;;;;7.64;82.44;97992.44;4977613;28;20545;-82
2023/01/11 09:35:15;;;;;;;2.72;1.70;;;;;;;7.67;82.73;97981.63;4976727;28;20423;-82
2023/01/11 09:37:44;;;;;;;2.83;2.13;;;;;;;7.73;82.44;97982.69;4976915;28;20092;-83
2023/01/11 09:40:20;;;;;;;2.80;1.80;;;;;;;7.83;82.41;97974.56;4975163;28;20050;-83
2023/01/11 09:42:59;;;;;;;3.15;1.85;;;;;;;7.82;81.99;97972.97;4978010;28;20035;-83
2023/01/11 09:45:29;;;;;;;4.82;2.53;;;;;;;7.96;81.66;97977.31;4979406;28;20027;-82
2023/01/11 09:48:34;;;;;;;3.30;2.42;;;;;;;8.09;81.28;97972.22;4977719;28;20121;-82
2023/01/11 09:51:01;;;;;;;2.35;2.05;;;;;;;8.19;80.54;97966.69;4981996;28;20054;-82
2023/01/11 09:53:35;;;;;;;2.45;2.25;;;;;;;8.26;80.32;97968.38;4984283;28;20041;-82
2023/01/11 09:56:06;;;;;;;2.63;1.88;;;;;;;8.36;80.26;97964.66;4984110;28;20094;-82
2023/01/11 09:59:15;;;;;;;2.75;1.75;;;;;;;8.45;80.31;97963.53;4982791;28;20039;-82
2023/01/11 10:02:26;;;;;;;3.42;2.00;;;;;;;8.50;80.41;97953.31;4983396;28;20070;-82
2023/01/11 10:05:39;;;;;;;4.43;2.10;;;;;;;8.58;79.75;97963.66;4982349;28;20030;-82
2023/01/11 10:08:40;;;;;;;4.05;1.83;;;;;;;8.64;79.82;97954.22;4982741;28;20038;-82
2023/01/11 10:11:40;;;;;;;2.60;1.98;;;;;;;8.61;79.85;97958.03;4989357;28;20034;-82
2023/01/11 10:14:12;;;;;;;2.25;1.80;;;;;;;8.67;79.78;97957.25;4981580;28;20080;-82
2023/01/11 10:17:05;;;;;;;3.47;1.80;;;;;;;8.58;79.48;97948.75;4981348;28;20093;-82
2023/01/11 10:19:44;;;;;;;2.05;1.48;;;;;;;8.54;79.26;97947.53;4981129;28;20050;-83
2023/01/11 10:22:30;;;;;;;4.80;2.20;;;;;;;8.57;80.15;97926.22;4980958;28;20038;-81
2023/01/11 10:25:13;;;;;;;2.97;1.65;;;;;;;8.57;79.72;97930.63;4980063;28;20057;-82
2023/01/11 10:28:06;;;;;;;2.90;1.73;;;;;;;8.58;79.55;97916.59;4977566;28;20030;-82
2023/01/11 10:41:02;;;;;;;4.35;2.17;;;;;;;8.75;79.79;97925.72;4988700;28;20076;-81
2023/01/11 10:43:28;;;;;;;2.45;1.60;;;;;;;8.74;79.43;97921.50;4980745;28;20041;-82
2023/01/11 10:46:20;;;;;;;4.75;1.80;;;;;;;8.79;79.21;97916.50;4977562;28;20038;-82
2023/01/11 10:48:46;;;;;;;2.33;1.60;;;;;;;8.78;79.49;97912.28;4980545;28;20070;-82
2023/01/11 10:51:36;;;;;;;4.20;1.83;;;;;;;8.76;79.27;97916.91;4982757;28;20034;-82
2023/01/11 10:54:21;;;;;;;2.60;1.40;;;;;;;8.79;79.26;97918.31;4981679;28;20043;-82
2023/01/11 10:57:19;;;;;;;2.72;1.52;;;;;;;8.80;79.25;97922.53;4981429;28;20034;-82
2023/01/11 11:00:30;;;;;;;3.15;1.65;;;;;;;8.89;79.59;97917.97;4980584;28;20054;-81
2023/01/11 11:03:05;;;;;;;2.45;1.60;;;;;;;8.82;79.52;97923.97;4979961;28;20058;-81
2023/01/11 11:05:57;;;;;;;2.70;1.58;;;;;;;8.78;80.67;97917.50;4979604;28;20045;-82
2023/01/11 11:08:54;;;;;;;3.58;1.55;;;;;;;8.76;80.84;97916.09;4981137;28;20035;-82
2023/01/11 11:11:51;;;;;;;3.67;1.73;;;;;;;8.70;81.70;97904.59;4981613;28;20474;-82
2023/01/11 11:14:48;;;;;;;3.83;1.50;;;;;;;8.66;83.08;97905.97;4979258;28;20049;-82
2023/01/11 11:17:51;;;;;;;3.28;1.80;;;;;;;8.71;83.56;97910.63;4977637;28;20119;-82
2023/01/11 11:20:24;;;;;;;4.65;1.80;;;;;;;8.76;83.61;97909.06;4981445;28;20046;-81
2023/01/11 11:22:51;;;;;;;2.75;1.60;;;;;;;8.79;83.59;97907.84;4978783;28;20542;-82
2023/01/11 11:25:37;;;;;;;3.42;1.65;;;;;;;8.80;83.96;97910.28;4976197;28;20031;-82
2023/01/11 11:28:13;;;;;;;2.95;1.67;;;;;;;8.80;83.93;97899.00;4976536;28;20026;-82
2023/01/11 11:30:45;;;;;;;2.45;1.50;;;;;;;8.77;84.62;97894.19;4975572;28;20035;-82
2023/01/11 11:33:34;;;;;;;2.13;1.90;;;;;;;8.79;84.94;97898.19;4982243;28;20470;-82
2023/01/11 11:36:10;;;;;;;2.65;1.63;;;;;;;8.80;85.20;97891.16;4983524;28;20058;-82
2023/01/11 11:38:41;;;;;;;3.78;1.83;;;;;;;8.84;85.59;97895.81;4982704;28;20074;-82
2023/01/11 11:41:15;;;;;;;2.08;1.60;;;;;;;8.76;86.05;97882.09;4983898;28;20048;-82
2023/01/11 11:43:46;;;;;;;2.92;2.00;;;;;;;8.81;86.46;97888.34;4981903;28;20066;-82
2023/01/11 11:46:14;;;;;;;4.32;1.80;;;;;;;8.87;87.02;97872.88;4976695;28;20069;-82
2023/01/11 11:49:03;;;;;;;4.63;2.40;;;;;;;8.90;86.77;97889.00;4981249;28;20101;-82
2023/01/11 11:51:29;;;;;;;5.13;2.20;;;;;;;8.89;86.73;97873.53;4980535;28;20045;-82
2023/01/11 11:53:56;;;;;;;3.20;2.05;;;;;;;8.91;86.91;97874.13;4981162;28;20038;-82
2023/01/11 11:56:33;;;;;;;3.55;2.67;;;;;;;8.87;87.88;97872.88;4982062;28;20134;-82
2023/01/11 11:59:08;;;;;;;2.33;1.95;;;;;;;8.80;88.31;97870.25;4978981;28;20041;-82
2023/01/11 12:01:38;;;;;;;3.28;2.28;;;;;;;8.85;88.42;97871.28;4978459;28;20050;-82
2023/01/11 12:04:19;;;;;;;4.63;2.00;;;;;;;8.88;89.34;97869.28;4983282;28;20038;-82
2023/01/11 12:07:05;;;;;;;4.50;2.08;;;;;;;8.92;89.47;97865.28;4983288;28;20526;-81
2023/01/11 12:09:35;;;;;;;6.85;2.08;;;;;;;8.94;89.38;97864.09;4979025;28;20074;-80
2023/01/11 12:12:02;;;;;;;3.72;1.98;;;;;;;8.95;89.43;97867.50;4979291;28;20038;-80
2023/01/11 12:14:34;;;;;;;3.58;1.88;;;;;;;8.95;90.11;97870.13;4977905;28;20710;-80
2023/01/11 12:17:19;;;;;;;3.65;2.00;;;;;;;8.97;90.42;97862.88;4977452;28;20030;-80
2023/01/11 12:19:46;;;;;;;2.92;2.15;;;;;;;9.02;90.59;97870.97;4976662;28;20042;-80
2023/01/11 12:22:25;;;;;;;4.38;2.10;;;;;;;9.02;90.42;97861.31;4975749;28;20049;-80
2023/01/11 12:25:23;;;;;;;2.78;2.05;;;;;;;9.01;90.80;97856.28;4977624;28;20040;-80
2023/01/11 12:28:46;;;;;;;2.50;1.90;;;;;;;9.04;90.49;97850.63;4976764;28;20039;-80
2023/01/11 12:31:29;;;;;;;3.35;2.00;;;;;;;9.00;91.07;97859.91;4986065;28;20122;-80
2023/01/11 12:34:32;;;;;;;4.00;2.00;;;;;;;9.03;91.26;97849.81;4980907;28;20041;-81
2023/01/11 12:37:07;;;;;;;2.65;1.60;;;;;;;9.00;91.86;97842.38;4982427;28;20479;-81